Time;durP1;ratioP1;P1;durP2;ratioP2;P2;SDS_P1;SDS_P2;PMS_P1;PMS_P2;Temp;Humidity;BMP_temperature;BMP_pressure;BME280_temperature;BME280_humidity;BME280_pressure;Samples;Min_cycle;Max_cycle;Signal;HPM_P1;HPM_P2
2022/05/27 00:01:31;;;;;;;3.17;2.28;;;14.90;99.90;;;;;;5072997;28;20202;-69
2022/05/27 00:04:01;;;;;;;2.20;1.92;;;15.00;99.90;;;;;;5072082;28;20207;-70
2022/05/27 00:06:29;;;;;;;5.00;2.03;;;14.90;99.90;;;;;;5073407;28;20260;-70
2022/05/27 00:08:57;;;;;;;2.45;1.80;;;14.90;99.90;;;;;;5073176;28;20230;-70
2022/05/27 00:11:25;;;;;;;3.28;1.85;;;14.80;99.90;;;;;;5073118;28;20202;-70
2022/05/27 00:13:53;;;;;;;4.63;2.22;;;14.70;99.90;;;;;;5072210;28;20742;-69
2022/05/27 00:16:20;;;;;;;3.20;2.25;;;14.70;99.90;;;;;;5072950;28;20616;-69
2022/05/27 00:18:47;;;;;;;3.60;1.73;;;14.70;99.90;;;;;;5072519;28;20597;-67
2022/05/27 00:21:14;;;;;;;3.85;2.08;;;14.70;99.90;;;;;;5072722;28;20255;-71
2022/05/27 00:23:42;;;;;;;1.92;1.73;;;14.60;99.90;;;;;;5072135;28;20206;-68
2022/05/27 00:26:09;;;;;;;2.45;1.90;;;14.60;99.90;;;;;;5072573;28;20739;-67
2022/05/27 00:28:37;;;;;;;3.55;1.58;;;14.50;99.90;;;;;;5071588;28;20202;-68
2022/05/27 00:31:05;;;;;;;2.60;1.77;;;14.30;99.90;;;;;;5072509;28;20259;-68
2022/05/27 00:33:32;;;;;;;2.13;1.92;;;14.10;99.90;;;;;;5072007;28;20204;-68
2022/05/27 00:35:59;;;;;;;2.65;1.88;;;14.10;99.90;;;;;;5072488;28;20198;-68
2022/05/27 00:38:26;;;;;;;3.28;2.22;;;14.20;99.90;;;;;;5072472;28;20202;-68
2022/05/27 00:40:54;;;;;;;4.22;2.05;;;14.30;99.90;;;;;;5071910;28;20546;-68
2022/05/27 00:43:21;;;;;;;4.68;2.22;;;14.30;99.90;;;;;;5072002;28;20567;-68
2022/05/27 00:45:56;;;;;;;3.83;2.72;;;14.30;99.90;;;;;;5071658;28;20697;-68
2022/05/27 00:48:24;;;;;;;2.63;2.42;;;14.30;99.90;;;;;;5072415;28;20610;-68
2022/05/27 00:50:51;;;;;;;3.83;2.42;;;14.30;99.90;;;;;;5071591;28;20335;-67
2022/05/27 00:53:22;;;;;;;3.47;2.10;;;14.20;99.90;;;;;;5072120;28;20214;-68
2022/05/27 00:55:55;;;;;;;3.25;2.30;;;14.00;99.90;;;;;;5071646;28;20251;-68
2022/05/27 00:58:27;;;;;;;3.33;2.70;;;14.00;99.90;;;;;;5071821;28;20669;-68
2022/05/27 01:00:56;;;;;;;6.32;2.53;;;13.90;99.90;;;;;;5071760;28;20260;-68
2022/05/27 01:03:26;;;;;;;2.97;2.08;;;14.10;99.90;;;;;;5071883;28;20208;-67
2022/05/27 01:05:54;;;;;;;4.60;2.70;;;14.10;99.90;;;;;;5072029;28;20676;-67
2022/05/27 01:08:24;;;;;;;3.85;2.00;;;14.00;99.90;;;;;;5071474;28;20206;-67
2022/05/27 01:10:58;;;;;;;2.70;2.50;;;14.10;99.90;;;;;;5058829;28;20242;-67
2022/05/27 01:13:38;;;;;;;2.33;2.05;;;14.10;99.90;;;;;;5051843;28;20615;-67
2022/05/27 01:16:16;;;;;;;5.20;2.38;;;14.00;99.90;;;;;;5051465;28;20206;-67
2022/05/27 01:22:13;;;;;;;3.80;1.90;;;14.00;99.90;;;;;;5051791;28;20210;-68
2022/05/27 01:25:08;;;;;;;4.18;2.47;;;14.10;99.90;;;;;;5050838;28;20210;-70
2022/05/27 01:27:56;;;;;;;5.45;2.80;;;14.10;99.90;;;;;;5051051;28;20210;-68
2022/05/27 01:30:28;;;;;;;2.47;2.28;;;14.10;99.90;;;;;;5051548;28;20702;-67
2022/05/27 01:33:11;;;;;;;2.17;1.88;;;14.10;99.90;;;;;;5051250;28;20207;-67
2022/05/27 01:35:45;;;;;;;2.70;2.13;;;14.20;99.90;;;;;;5051045;28;20203;-68
2022/05/27 01:38:19;;;;;;;3.67;2.05;;;14.30;99.90;;;;;;5051398;28;20206;-70
2022/05/27 01:40:57;;;;;;;3.30;2.22;;;14.40;99.90;;;;;;5050356;28;20203;-67
2022/05/27 01:43:33;;;;;;;2.50;2.30;;;14.50;99.90;;;;;;5051446;28;20206;-67
2022/05/27 01:46:09;;;;;;;2.75;2.55;;;14.60;99.90;;;;;;5050901;28;20256;-67
2022/05/27 01:48:43;;;;;;;5.07;2.15;;;14.60;99.90;;;;;;5050751;28;20238;-67
2022/05/27 01:51:14;;;;;;;5.53;2.90;;;14.70;99.90;;;;;;5051018;28;20234;-67
2022/05/27 01:53:47;;;;;;;2.58;2.33;;;14.80;99.90;;;;;;5050217;28;20252;-67
2022/05/27 01:56:19;;;;;;;3.05;2.38;;;14.80;99.90;;;;;;5051075;28;20207;-67
2022/05/27 01:58:51;;;;;;;3.15;2.40;;;14.90;99.90;;;;;;5050466;28;20245;-67
2022/05/27 02:01:22;;;;;;;5.93;2.15;;;14.90;99.90;;;;;;5050907;28;20218;-68
2022/05/27 02:03:54;;;;;;;2.72;1.85;;;14.90;99.90;;;;;;5050413;28;20224;-67
2022/05/27 02:06:26;;;;;;;4.95;3.33;;;14.90;99.90;;;;;;5050684;28;20667;-67
2022/05/27 02:08:58;;;;;;;3.70;1.70;;;15.00;99.90;;;;;;5050520;28;20206;-68
2022/05/27 02:11:26;;;;;;;3.78;2.10;;;15.00;99.90;;;;;;5051030;28;20230;-67
2022/05/27 02:13:58;;;;;;;4.22;1.92;;;15.10;99.90;;;;;;5050667;28;20209;-68
2022/05/27 02:16:33;;;;;;;3.33;2.20;;;15.10;99.90;;;;;;5050968;28;20273;-68
2022/05/27 02:19:03;;;;;;;5.47;1.98;;;15.10;99.90;;;;;;5050463;28;20206;-69
2022/05/27 02:21:34;;;;;;;1.95;1.30;;;15.10;99.90;;;;;;5050661;28;20211;-68
2022/05/27 02:24:07;;;;;;;2.42;1.85;;;15.10;99.90;;;;;;5050524;28;20203;-68
2022/05/27 02:26:41;;;;;;;2.65;1.90;;;15.10;99.90;;;;;;5050575;28;20211;-68
2022/05/27 02:29:11;;;;;;;2.15;1.85;;;15.10;99.90;;;;;;5054768;28;20206;-68
2022/05/27 02:31:44;;;;;;;2.92;1.60;;;15.20;99.90;;;;;;5054935;28;20260;-68
2022/05/27 02:37:08;;;;;;;2.33;1.70;;;15.20;99.90;;;;;;5054502;28;20226;-68
2022/05/27 02:39:36;;;;;;;3.22;2.10;;;15.20;99.90;;;;;;5054069;28;20210;-68
2022/05/27 02:42:11;;;;;;;2.30;1.83;;;15.30;99.90;;;;;;5054596;28;20257;-68
2022/05/27 02:44:46;;;;;;;2.55;2.28;;;15.30;99.90;;;;;;5053957;28;20252;-68
2022/05/27 02:47:21;;;;;;;2.15;1.83;;;15.30;99.90;;;;;;5054448;28;20198;-72
2022/05/27 02:49:55;;;;;;;2.95;1.80;;;15.30;99.90;;;;;;5053945;28;20233;-68
2022/05/27 02:52:32;;;;;;;3.55;1.77;;;15.30;99.90;;;;;;5053889;28;20206;-69
2022/05/27 02:55:10;;;;;;;1.73;1.45;;;15.40;99.90;;;;;;5054492;28;20285;-71
2022/05/27 02:57:42;;;;;;;3.38;1.80;;;15.40;99.90;;;;;;5054120;28;20288;-68
2022/05/27 03:00:12;;;;;;;3.28;1.88;;;15.40;99.90;;;;;;5054234;28;20210;-68
2022/05/27 03:02:40;;;;;;;2.85;2.20;;;15.30;99.90;;;;;;5054005;28;20202;-68
2022/05/27 03:05:08;;;;;;;2.10;1.90;;;15.40;99.90;;;;;;5054095;28;20748;-69
2022/05/27 03:07:43;;;;;;;3.40;1.40;;;15.30;99.90;;;;;;5053449;28;20253;-68
2022/05/27 03:10:27;;;;;;;3.05;2.03;;;15.30;99.90;;;;;;5054065;28;20304;-68
2022/05/27 03:13:10;;;;;;;3.35;1.73;;;15.40;99.90;;;;;;5053722;28;20269;-68
2022/05/27 03:16:01;;;;;;;1.65;1.45;;;15.30;99.90;;;;;;5053592;28;20203;-68
2022/05/27 03:18:41;;;;;;;1.50;1.40;;;15.40;99.90;;;;;;5054530;28;20256;-69
2022/05/27 03:21:16;;;;;;;2.03;1.67;;;15.40;99.90;;;;;;5053668;28;20744;-68
2022/05/27 03:24:03;;;;;;;4.80;2.22;;;15.30;99.90;;;;;;5053511;28;20348;-69
2022/05/27 03:26:39;;;;;;;3.95;2.03;;;15.30;99.90;;;;;;5053606;28;20289;-68
2022/05/27 03:29:18;;;;;;;2.83;1.60;;;15.40;99.90;;;;;;5053556;28;20628;-68
2022/05/27 03:31:52;;;;;;;2.28;1.75;;;15.40;99.90;;;;;;5053174;28;20231;-68
2022/05/27 03:34:25;;;;;;;2.85;1.30;;;15.50;99.90;;;;;;5053429;28;20702;-67
2022/05/27 03:36:57;;;;;;;3.50;1.92;;;15.50;99.90;;;;;;5053022;28;20626;-68
2022/05/27 03:39:30;;;;;;;2.30;2.00;;;15.50;99.90;;;;;;5053746;28;20207;-68
2022/05/27 03:42:04;;;;;;;2.22;1.60;;;15.50;99.90;;;;;;5053516;28;20355;-69
2022/05/27 03:44:32;;;;;;;1.60;1.40;;;15.50;99.90;;;;;;5053145;28;20210;-68
2022/05/27 03:47:00;;;;;;;1.70;1.52;;;15.50;99.90;;;;;;5053550;28;20269;-67
2022/05/27 03:49:28;;;;;;;2.90;2.53;;;15.50;99.90;;;;;;5053582;28;20599;-67
2022/05/27 03:52:03;;;;;;;2.70;1.83;;;15.50;99.90;;;;;;5053395;28;20230;-67
2022/05/27 03:54:30;;;;;;;2.65;1.92;;;15.50;99.90;;;;;;5053224;28;20202;-67
2022/05/27 03:56:58;;;;;;;3.38;1.83;;;15.50;99.90;;;;;;5053141;28;20301;-68
2022/05/27 03:59:26;;;;;;;6.15;1.67;;;15.50;99.90;;;;;;5053575;28;20207;-69
2022/05/27 04:01:55;;;;;;;2.30;1.67;;;15.40;99.90;;;;;;5052848;28;20302;-68
2022/05/27 04:04:24;;;;;;;2.80;1.77;;;15.40;99.90;;;;;;5052862;28;20203;-69
2022/05/27 04:06:53;;;;;;;3.72;2.22;;;15.50;99.90;;;;;;5052519;28;20207;-69
2022/05/27 04:09:22;;;;;;;4.00;1.88;;;15.50;99.90;;;;;;5053177;28;20199;-69
2022/05/27 04:11:51;;;;;;;3.55;1.70;;;15.50;99.90;;;;;;5052498;28;20276;-69
2022/05/27 04:14:19;;;;;;;3.63;1.85;;;15.60;99.90;;;;;;5053074;28;20206;-69
2022/05/27 04:16:48;;;;;;;1.42;1.33;;;15.50;99.90;;;;;;5052255;28;20674;-70
2022/05/27 04:19:15;;;;;;;5.43;2.35;;;15.50;99.90;;;;;;5052546;28;20203;-69
2022/05/27 04:21:42;;;;;;;2.42;2.00;;;15.50;99.90;;;;;;5052321;28;20203;-69
2022/05/27 04:24:11;;;;;;;3.33;1.42;;;15.50;99.90;;;;;;5052730;28;20253;-69
2022/05/27 04:26:38;;;;;;;4.07;1.92;;;15.40;99.90;;;;;;5052388;28;20327;-69
2022/05/27 04:29:05;;;;;;;2.90;1.77;;;15.50;99.90;;;;;;5052476;28;20211;-70
2022/05/27 04:31:33;;;;;;;4.57;2.05;;;15.40;99.90;;;;;;5051977;28;20235;-70
2022/05/27 04:34:06;;;;;;;3.90;2.08;;;15.30;99.90;;;;;;5056566;28;20293;-71
2022/05/27 04:36:33;;;;;;;3.28;1.98;;;15.30;99.90;;;;;;5063876;28;20187;-71
2022/05/27 04:39:00;;;;;;;1.70;1.60;;;15.30;99.90;;;;;;5052355;28;20207;-70
2022/05/27 04:41:29;;;;;;;2.15;1.77;;;15.30;99.90;;;;;;5067831;28;20260;-71
2022/05/27 04:43:56;;;;;;;4.93;1.70;;;15.30;99.90;;;;;;5072411;28;20271;-71
2022/05/27 04:46:23;;;;;;;2.65;1.50;;;15.30;99.90;;;;;;5072321;28;20209;-71
2022/05/27 04:48:50;;;;;;;4.35;2.40;;;15.20;99.90;;;;;;5071818;28;20202;-71
2022/05/27 04:51:17;;;;;;;2.50;2.03;;;15.20;99.90;;;;;;5071724;28;20242;-71
2022/05/27 04:53:44;;;;;;;4.35;2.50;;;15.20;99.90;;;;;;5055291;28;20207;-71
2022/05/27 04:56:12;;;;;;;4.72;2.03;;;15.20;99.90;;;;;;5052102;28;20720;-69
2022/05/27 04:58:41;;;;;;;2.08;1.88;;;15.20;99.90;;;;;;5055530;28;20693;-69
2022/05/27 05:01:08;;;;;;;2.22;1.75;;;15.20;99.90;;;;;;5071529;28;20210;-68
2022/05/27 05:03:35;;;;;;;4.25;1.90;;;15.30;99.90;;;;;;5070433;28;20202;-68
2022/05/27 05:06:02;;;;;;;2.80;2.13;;;15.30;99.90;;;;;;5071378;28;20616;-68
2022/05/27 05:08:33;;;;;;;4.38;1.80;;;15.30;99.90;;;;;;5071650;28;20275;-69
2022/05/27 05:11:02;;;;;;;7.07;2.08;;;15.30;99.90;;;;;;5070122;28;20221;-70
2022/05/27 05:13:30;;;;;;;3.78;2.30;;;15.30;99.90;;;;;;5070241;28;20206;-67
2022/05/27 05:15:59;;;;;;;4.68;2.40;;;15.30;99.90;;;;;;5072116;28;20627;-69
2022/05/27 05:18:26;;;;;;;2.55;1.67;;;15.40;99.90;;;;;;5071746;28;20233;-68
2022/05/27 05:20:53;;;;;;;2.03;1.85;;;15.40;99.90;;;;;;5071508;28;20202;-68
2022/05/27 05:23:20;;;;;;;3.28;2.40;;;15.40;99.90;;;;;;5071469;28;20252;-67
2022/05/27 05:25:47;;;;;;;3.30;2.22;;;15.40;99.90;;;;;;5070911;28;20243;-68
2022/05/27 05:28:14;;;;;;;3.55;2.40;;;15.40;99.90;;;;;;5071298;28;20203;-67
2022/05/27 05:30:41;;;;;;;2.50;2.30;;;15.50;99.90;;;;;;5070924;28;20225;-70
2022/05/27 05:33:10;;;;;;;4.55;2.20;;;15.60;99.90;;;;;;5071133;28;20202;-68
2022/05/27 05:35:37;;;;;;;2.67;2.15;;;15.60;99.90;;;;;;5071020;28;20202;-70
2022/05/27 05:38:05;;;;;;;4.72;2.50;;;15.70;99.90;;;;;;5071305;28;20629;-67
2022/05/27 05:40:32;;;;;;;3.28;2.17;;;15.80;99.90;;;;;;5070727;28;20210;-67
2022/05/27 05:43:00;;;;;;;2.70;2.00;;;15.90;99.90;;;;;;5054400;28;20207;-69
2022/05/27 05:45:28;;;;;;;2.83;2.17;;;16.10;99.90;;;;;;5055908;28;20215;-67
2022/05/27 05:47:55;;;;;;;3.13;2.10;;;16.30;99.90;;;;;;5070905;28;20264;-68
2022/05/27 05:50:23;;;;;;;3.53;2.08;;;16.40;99.90;;;;;;5064662;28;20297;-69
2022/05/27 05:52:50;;;;;;;3.20;2.38;;;16.50;99.90;;;;;;5070390;28;20256;-69
2022/05/27 05:55:19;;;;;;;3.67;2.58;;;16.60;99.90;;;;;;5070936;28;20210;-69
2022/05/27 05:57:47;;;;;;;3.22;2.30;;;16.70;99.90;;;;;;5070637;28;20283;-70
2022/05/27 06:00:17;;;;;;;4.40;2.47;;;16.80;99.90;;;;;;5068162;28;20210;-71
2022/05/27 06:02:44;;;;;;;2.05;1.73;;;17.00;99.90;;;;;;5069571;28;20202;-71
2022/05/27 06:05:11;;;;;;;3.05;2.28;;;17.20;99.90;;;;;;5070474;28;20571;-71
2022/05/27 06:07:40;;;;;;;6.13;2.33;;;17.20;99.90;;;;;;5070105;28;20247;-71
2022/05/27 06:10:09;;;;;;;5.85;2.25;;;17.20;99.90;;;;;;5060960;28;20207;-70
2022/05/27 06:12:38;;;;;;;3.53;1.90;;;17.30;99.90;;;;;;5068824;28;20279;-71
2022/05/27 06:15:07;;;;;;;4.03;2.08;;;17.40;99.90;;;;;;5070518;28;20209;-70
2022/05/27 06:17:38;;;;;;;2.65;1.95;;;17.40;99.90;;;;;;5070136;28;20202;-70
2022/05/27 06:20:07;;;;;;;5.43;2.22;;;17.40;99.90;;;;;;5070164;28;20677;-70
2022/05/27 06:22:34;;;;;;;2.38;2.00;;;17.40;99.90;;;;;;5069810;28;20206;-70
2022/05/27 06:25:03;;;;;;;2.75;1.65;;;17.40;99.90;;;;;;5070542;28;20213;-70
2022/05/27 06:27:30;;;;;;;5.28;2.92;;;17.40;99.90;;;;;;5070019;28;20201;-70
2022/05/27 06:35:34;;;;;;;3.55;2.08;;;17.80;99.90;;;;;;5069758;28;20234;-70
2022/05/27 06:38:01;;;;;;;3.15;2.13;;;17.70;99.90;;;;;;5069692;28;20210;-71
2022/05/27 06:40:29;;;;;;;2.83;1.85;;;17.60;99.90;;;;;;5068060;28;20259;-70
2022/05/27 06:42:56;;;;;;;4.53;1.75;;;17.70;99.90;;;;;;5061400;28;20631;-70
2022/05/27 06:45:24;;;;;;;2.35;2.10;;;17.80;99.90;;;;;;5065361;28;20214;-71
2022/05/27 06:47:52;;;;;;;3.53;2.40;;;18.00;99.90;;;;;;5069837;28;20224;-71
2022/05/27 06:50:19;;;;;;;7.13;1.95;;;18.20;99.90;;;;;;5070095;28;20682;-70
2022/05/27 06:52:47;;;;;;;4.30;2.20;;;18.30;99.90;;;;;;5069822;28;20354;-70
2022/05/27 06:55:16;;;;;;;5.75;3.20;;;18.30;99.90;;;;;;5070042;28;20210;-70
2022/05/27 06:57:44;;;;;;;3.75;2.15;;;18.10;99.90;;;;;;5069516;28;20201;-71
2022/05/27 07:00:13;;;;;;;4.57;2.13;;;18.00;99.90;;;;;;5069957;28;20264;-70
2022/05/27 07:02:40;;;;;;;3.97;2.28;;;18.20;99.90;;;;;;5069796;28;20301;-70
2022/05/27 07:05:08;;;;;;;4.10;2.05;;;18.30;99.90;;;;;;5070162;28;20678;-71
2022/05/27 07:07:36;;;;;;;4.13;2.78;;;18.20;99.90;;;;;;5069192;28;20666;-71
2022/05/27 07:10:03;;;;;;;4.72;2.55;;;18.30;99.90;;;;;;5068049;28;20688;-70
2022/05/27 07:12:30;;;;;;;4.13;2.17;;;18.50;99.90;;;;;;5059568;28;20323;-71
2022/05/27 07:14:59;;;;;;;4.40;1.85;;;18.70;99.90;;;;;;5073598;28;20232;-74
2022/05/27 07:17:26;;;;;;;4.25;1.95;;;19.00;99.90;;;;;;5073270;28;20624;-69
2022/05/27 07:19:53;;;;;;;1.95;1.30;;;19.20;99.90;;;;;;5072946;28;20206;-70
2022/05/27 07:22:20;;;;;;;3.90;2.22;;;19.40;99.90;;;;;;5073735;28;20210;-68
2022/05/27 07:24:47;;;;;;;3.45;1.95;;;19.50;99.90;;;;;;5072916;28;20206;-68
2022/05/27 07:27:14;;;;;;;4.28;2.40;;;19.50;99.90;;;;;;5072873;28;20737;-70
2022/05/27 07:29:41;;;;;;;2.40;2.08;;;19.30;99.90;;;;;;5072739;28;20206;-69
2022/05/27 07:32:09;;;;;;;4.03;1.75;;;19.60;99.90;;;;;;5073048;28;20652;-69
2022/05/27 07:34:36;;;;;;;3.13;2.03;;;19.60;99.90;;;;;;5058051;28;20211;-68
2022/05/27 07:37:03;;;;;;;2.40;1.73;;;19.60;99.90;;;;;;5053441;28;20207;-69
2022/05/27 07:39:30;;;;;;;6.10;2.72;;;19.70;99.90;;;;;;5063140;28;20206;-69
2022/05/27 07:41:57;;;;;;;4.57;1.83;;;19.50;99.90;;;;;;5072182;28;20670;-70
2022/05/27 07:44:24;;;;;;;4.40;2.38;;;19.40;99.90;;;;;;5073263;28;20214;-71
2022/05/27 07:46:53;;;;;;;6.10;2.65;;;19.50;99.90;;;;;;5083622;28;20210;-69
2022/05/27 07:49:22;;;;;;;4.40;2.30;;;19.60;99.90;;;;;;5073135;28;20310;-72
2022/05/27 07:51:49;;;;;;;1.80;1.70;;;19.70;99.90;;;;;;5072713;28;20249;-70
2022/05/27 07:54:16;;;;;;;3.40;1.88;;;19.60;99.90;;;;;;5073300;28;20620;-72
2022/05/27 07:56:43;;;;;;;3.25;1.60;;;19.60;99.90;;;;;;5072967;28;20202;-70
2022/05/27 07:59:10;;;;;;;3.00;1.77;;;19.80;99.90;;;;;;5073458;28;20206;-71
2022/05/27 08:01:37;;;;;;;3.80;1.55;;;19.80;99.90;;;;;;5072831;28;20259;-70
2022/05/27 08:04:05;;;;;;;4.10;2.38;;;20.10;99.90;;;;;;5072018;28;20688;-73
2022/05/27 08:06:34;;;;;;;3.45;2.20;;;20.80;99.90;;;;;;5072123;28;20260;-71
2022/05/27 08:09:01;;;;;;;2.28;1.67;;;22.80;99.90;;;;;;5068119;28;20666;-73
2022/05/27 08:11:28;;;;;;;2.53;1.50;;;21.50;99.90;;;;;;5068585;28;20272;-69
2022/05/27 08:13:55;;;;;;;3.90;1.27;;;20.80;99.90;;;;;;5072251;28;20210;-68
2022/05/27 08:16:22;;;;;;;4.78;1.88;;;20.50;99.90;;;;;;5072056;28;20248;-69
2022/05/27 08:18:49;;;;;;;2.13;1.65;;;20.60;99.90;;;;;;5071568;28;20276;-68
2022/05/27 08:21:17;;;;;;;3.80;2.13;;;20.90;99.90;;;;;;5071865;28;20202;-66
2022/05/27 08:23:45;;;;;;;2.70;1.35;;;20.80;99.90;;;;;;5071416;28;20628;-66
2022/05/27 08:26:12;;;;;;;4.43;1.70;;;20.70;99.90;;;;;;5071318;28;20198;-66
2022/05/27 08:28:39;;;;;;;1.88;1.52;;;21.20;99.90;;;;;;5071640;28;20453;-66
2022/05/27 08:31:06;;;;;;;3.17;1.70;;;21.20;99.90;;;;;;5071735;28;20263;-67
2022/05/27 08:39:04;;;;;;;1.83;1.35;;;21.20;99.90;;;;;;5066490;28;20220;-66
2022/05/27 08:41:55;;;;;;;4.78;1.88;;;21.70;99.90;;;;;;5071002;28;20576;-69
2022/05/27 08:44:41;;;;;;;1.58;1.48;;;21.80;99.90;;;;;;5065605;28;20210;-67
2022/05/27 08:47:19;;;;;;;1.65;1.42;;;21.50;99.90;;;;;;5071232;28;20748;-67
2022/05/27 08:49:49;;;;;;;5.00;1.83;;;22.30;99.90;;;;;;5066136;28;20206;-68
2022/05/27 08:52:22;;;;;;;3.42;1.90;;;23.70;99.90;;;;;;5066431;28;20234;-70
2022/05/27 08:54:56;;;;;;;4.32;1.80;;;22.40;99.90;;;;;;5069778;28;20210;-67
2022/05/27 09:00:14;;;;;;;2.20;1.63;;;23.00;99.90;;;;;;5071144;28;20588;-65
2022/05/27 09:02:48;;;;;;;2.17;1.38;;;21.90;99.90;;;;;;5070356;28;20206;-69
2022/05/27 09:05:19;;;;;;;3.70;1.88;;;21.80;99.90;;;;;;5070838;28;20661;-66
2022/05/27 09:07:51;;;;;;;2.95;2.13;;;21.90;99.90;;;;;;5068576;28;20206;-69
2022/05/27 09:10:22;;;;;;;3.97;1.67;;;21.60;99.90;;;;;;5070846;28;20206;-66
2022/05/27 09:13:06;;;;;;;2.50;2.25;;;21.60;99.90;;;;;;5068230;28;20233;-67
2022/05/27 09:15:40;;;;;;;2.63;2.38;;;21.60;99.90;;;;;;5070149;28;20208;-70
2022/05/27 09:18:14;;;;;;;3.15;2.03;;;22.90;99.90;;;;;;5070662;28;20199;-67
2022/05/27 09:20:50;;;;;;;4.50;2.50;;;22.70;99.90;;;;;;5069475;28;20275;-69
2022/05/27 09:23:54;;;;;;;3.05;1.73;;;22.20;99.90;;;;;;5070398;28;20245;-68
2022/05/27 09:26:28;;;;;;;2.83;1.83;;;21.90;99.90;;;;;;5019733;28;20249;-67
2022/05/27 09:29:04;;;;;;;2.40;1.70;;;23.40;99.90;;;;;;5070021;28;20208;-67
2022/05/27 09:31:35;;;;;;;2.13;1.60;;;23.10;99.90;;;;;;5063669;28;20665;-67
2022/05/27 09:34:02;;;;;;;2.67;1.75;;;23.60;99.90;;;;;;5069906;28;20726;-68
2022/05/27 09:36:36;;;;;;;3.28;1.60;;;24.40;99.90;;;;;;5069505;28;20252;-69
2022/05/27 09:39:07;;;;;;;2.88;1.95;;;23.80;99.90;;;;;;5069116;28;20300;-68
2022/05/27 09:41:41;;;;;;;2.55;2.22;;;24.20;99.90;;;;;;5070079;28;20743;-68
2022/05/27 09:44:17;;;;;;;3.42;2.00;;;25.70;99.90;;;;;;5070770;28;20221;-68
2022/05/27 09:46:45;;;;;;;1.65;1.42;;;23.90;99.90;;;;;;5070631;28;20216;-68
2022/05/27 09:49:12;;;;;;;2.83;1.13;;;23.60;99.90;;;;;;5069528;28;20644;-68
2022/05/27 09:51:39;;;;;;;2.97;1.60;;;22.70;99.90;;;;;;5070171;28;20210;-68
2022/05/27 09:54:33;;;;;;;2.30;2.10;;;23.50;99.90;;;;;;5070560;28;20214;-69
2022/05/27 09:57:03;;;;;;;3.17;1.90;;;25.80;99.90;;;;;;5070762;28;20217;-69
2022/05/27 09:59:37;;;;;;;2.50;1.50;;;25.40;99.90;;;;;;5070810;28;20724;-67
2022/05/27 10:02:17;;;;;;;2.58;1.33;;;24.00;99.90;;;;;;5069951;28;20213;-68
2022/05/27 10:04:56;;;;;;;2.90;1.88;;;26.10;99.90;;;;;;5070469;28;20742;-68
2022/05/27 10:07:26;;;;;;;3.15;2.15;;;23.70;99.90;;;;;;5070000;28;20270;-69
2022/05/27 10:09:55;;;;;;;2.17;1.92;;;22.60;99.90;;;;;;5064581;28;20209;-69
2022/05/27 10:12:35;;;;;;;1.50;1.40;;;24.70;99.90;;;;;;5065483;28;20307;-70
2022/05/27 10:15:02;;;;;;;3.05;2.20;;;25.40;99.90;;;;;;5052826;28;20888;-71
2022/05/27 10:17:35;;;;;;;1.58;1.48;;;22.90;99.90;;;;;;5068410;28;20626;-69
2022/05/27 10:20:18;;;;;;;2.50;2.28;;;22.00;99.90;;;;;;5067653;28;20202;-70
2022/05/27 10:23:02;;;;;;;2.67;1.80;;;22.20;99.90;;;;;;5068812;28;20289;-69
2022/05/27 10:25:33;;;;;;;2.50;1.30;;;21.90;99.90;;;;;;5069876;28;20202;-69
2022/05/27 10:28:01;;;;;;;5.35;1.92;;;22.00;99.90;;;;;;5069623;28;20206;-70
2022/05/27 10:30:31;;;;;;;3.38;2.60;;;21.90;99.90;;;;;;5065476;28;20206;-71
2022/05/27 10:33:17;;;;;;;4.53;2.40;;;21.80;99.90;;;;;;5065703;28;20226;-71
2022/05/27 10:35:45;;;;;;;3.38;1.45;;;22.10;99.90;;;;;;5066800;28;20282;-70
2022/05/27 10:38:29;;;;;;;2.20;1.75;;;23.20;99.90;;;;;;5064145;28;20236;-71
2022/05/27 10:41:05;;;;;;;3.75;1.90;;;22.60;99.90;;;;;;5066754;28;20206;-72
2022/05/27 10:43:55;;;;;;;4.95;1.75;;;22.30;99.90;;;;;;5067044;28;20201;-70
2022/05/27 10:46:24;;;;;;;1.92;1.67;;;21.80;99.90;;;;;;5069799;28;20204;-70
2022/05/27 10:49:26;;;;;;;2.33;1.40;;;21.90;99.90;;;;;;5071659;28;20230;-71
2022/05/27 10:52:06;;;;;;;1.70;1.60;;;22.70;99.90;;;;;;5073157;28;20634;-70
2022/05/27 10:54:45;;;;;;;2.08;1.60;;;23.30;99.90;;;;;;5071992;28;20198;-70
2022/05/27 11:03:32;;;;;;;1.58;1.40;;;23.00;99.90;;;;;;5071233;28;20610;-72
2022/05/27 11:06:18;;;;;;;3.17;1.70;;;23.00;99.90;;;;;;5070700;28;20198;-70
2022/05/27 11:08:56;;;;;;;1.88;1.27;;;22.80;99.90;;;;;;5073036;28;20259;-68
2022/05/27 11:11:32;;;;;;;2.20;1.33;;;23.00;99.90;;;;;;5073333;28;20623;-69
2022/05/27 11:17:03;;;;;;;2.45;1.50;;;23.00;99.90;;;;;;5072616;28;20206;-69
2022/05/27 11:19:51;;;;;;;1.38;1.27;;;22.50;99.90;;;;;;5072845;28;20259;-69
2022/05/27 11:22:28;;;;;;;1.83;1.65;;;22.60;99.90;;;;;;5072620;28;20206;-69
2022/05/27 11:25:26;;;;;;;2.90;1.40;;;22.90;99.90;;;;;;5073531;28;20206;-70
2022/05/27 11:28:19;;;;;;;4.25;2.28;;;23.70;99.90;;;;;;5073503;28;20624;-69
2022/05/27 11:30:59;;;;;;;2.20;1.42;;;23.70;99.90;;;;;;5073397;28;20205;-69
2022/05/27 11:33:40;;;;;;;3.10;1.58;;;23.60;99.90;;;;;;5073742;28;20283;-69
2022/05/27 11:36:24;;;;;;;3.15;1.38;;;23.00;99.90;;;;;;5073629;28;20288;-69
2022/05/27 11:39:06;;;;;;;1.63;1.50;;;22.50;99.90;;;;;;5073126;28;20735;-70
2022/05/27 11:41:39;;;;;;;2.85;1.13;;;23.20;99.90;;;;;;5073150;28;20258;-69
2022/05/27 11:44:20;;;;;;;8.75;1.75;;;24.30;99.90;;;;;;5073161;28;20279;-69
2022/05/27 11:47:16;;;;;;;4.18;1.08;;;24.20;99.90;;;;;;5073077;28;20224;-69
2022/05/27 11:50:22;;;;;;;1.63;1.20;;;23.90;99.90;;;;;;5072705;28;20206;-70
2022/05/27 11:53:02;;;;;;;4.60;2.33;;;23.90;99.90;;;;;;5066606;28;20233;-69
2022/05/27 11:55:50;;;;;;;2.35;1.33;;;23.90;99.90;;;;;;5073244;28;20244;-70
2022/05/27 11:58:22;;;;;;;2.05;1.33;;;23.60;99.90;;;;;;5073292;28;20205;-69
2022/05/27 12:00:55;;;;;;;1.58;1.10;;;23.30;99.90;;;;;;5071424;28;20203;-69
2022/05/27 12:03:33;;;;;;;5.95;1.20;;;22.90;99.90;;;;;;5072939;28;20210;-69
2022/05/27 12:06:07;;;;;;;2.30;1.60;;;23.20;99.90;;;;;;5072854;28;20208;-69
2022/05/27 12:08:40;;;;;;;3.20;1.25;;;23.30;99.90;;;;;;5072436;28;20666;-68
2022/05/27 12:11:12;;;;;;;3.22;1.08;;;23.50;99.90;;;;;;5072822;28;20206;-69
2022/05/27 12:13:46;;;;;;;5.95;2.05;;;23.50;99.90;;;;;;5072530;28;20234;-70
2022/05/27 12:16:16;;;;;;;2.08;1.33;;;23.70;99.90;;;;;;5069593;28;20949;-70
2022/05/27 12:18:46;;;;;;;1.08;0.90;;;24.40;99.90;;;;;;5057738;28;20744;-71
2022/05/27 12:21:18;;;;;;;2.13;1.20;;;24.80;99.90;;;;;;5072209;28;20205;-70
2022/05/27 12:23:51;;;;;;;6.20;1.85;;;25.00;99.90;;;;;;5068827;28;20647;-69
2022/05/27 12:26:22;;;;;;;3.88;1.10;;;25.60;99.90;;;;;;5071908;28;20206;-69
2022/05/27 12:28:50;;;;;;;2.97;0.95;;;24.70;99.90;;;;;;5071752;28;20739;-70
2022/05/27 12:31:17;;;;;;;1.75;1.00;;;24.00;99.90;;;;;;5072098;28;20255;-68
2022/05/27 12:33:44;;;;;;;20.33;2.65;;;24.50;99.90;;;;;;5071891;28;20288;-70
2022/05/27 12:36:23;;;;;;;1.88;1.20;;;25.10;99.90;;;;;;5069412;28;20199;-71
2022/05/27 12:38:52;;;;;;;2.40;1.33;;;25.00;99.90;;;;;;5070601;28;20202;-70
2022/05/27 12:41:34;;;;;;;2.35;1.30;;;25.10;99.90;;;;;;5058934;28;20289;-68
2022/05/27 12:44:03;;;;;;;1.58;1.17;;;24.40;99.90;;;;;;5069504;28;20218;-71
2022/05/27 12:46:33;;;;;;;3.50;0.90;;;23.80;99.90;;;;;;5068222;28;21627;-68
2022/05/27 12:49:33;;;;;;;4.45;1.25;;;23.50;99.90;;;;;;5071840;28;20206;-70
2022/05/27 12:52:02;;;;;;;2.97;1.58;;;24.50;99.90;;;;;;5074251;28;20631;-69
2022/05/27 12:55:01;;;;;;;1.73;1.15;;;25.40;99.90;;;;;;5071966;28;20295;-68
2022/05/27 13:00:57;;;;;;;1.35;1.25;;;24.80;99.90;;;;;;5071649;28;20328;-68
2022/05/27 13:03:48;;;;;;;2.50;0.90;;;25.50;99.90;;;;;;5071445;28;20216;-68
2022/05/27 13:06:35;;;;;;;1.33;0.93;;;25.70;99.90;;;;;;5071145;28;20297;-68
2022/05/27 13:09:07;;;;;;;2.88;1.08;;;25.80;99.90;;;;;;5062561;28;20203;-68
2022/05/27 13:11:44;;;;;;;1.30;1.20;;;25.00;99.90;;;;;;5067975;28;20206;-68
2022/05/27 13:14:19;;;;;;;2.45;1.20;;;24.10;99.90;;;;;;5070822;28;20229;-68
2022/05/27 13:16:49;;;;;;;2.55;1.40;;;24.90;99.90;;;;;;5069747;28;20304;-69
2022/05/27 13:19:31;;;;;;;3.42;1.40;;;25.30;99.90;;;;;;5063021;28;20259;-68
2022/05/27 13:22:00;;;;;;;2.92;1.02;;;25.10;99.90;;;;;;5058634;28;20210;-68
2022/05/27 13:24:35;;;;;;;2.67;1.10;;;24.70;99.90;;;;;;5071638;28;20214;-68
2022/05/27 13:27:29;;;;;;;2.28;1.05;;;24.20;99.90;;;;;;5051590;28;20190;-69
2022/05/27 13:30:02;;;;;;;4.70;1.30;;;23.80;99.90;;;;;;5049542;28;20251;-69
2022/05/27 13:32:31;;;;;;;1.67;1.17;;;23.90;99.90;;;;;;5051193;28;20289;-69
2022/05/27 13:35:01;;;;;;;2.95;1.50;;;24.80;99.90;;;;;;5051557;28;20211;-69
2022/05/27 13:37:39;;;;;;;1.08;0.98;;;25.60;99.90;;;;;;5050804;28;20257;-69
2022/05/27 13:40:11;;;;;;;1.63;1.30;;;25.60;99.90;;;;;;5051272;28;20203;-69
2022/05/27 13:42:45;;;;;;;1.55;1.20;;;24.90;99.90;;;;;;5050586;28;20553;-68
2022/05/27 13:45:15;;;;;;;1.58;1.48;;;24.60;99.90;;;;;;5058029;28;20206;-69
2022/05/27 13:47:52;;;;;;;1.23;1.02;;;24.30;99.90;;;;;;5070730;28;20209;-68